sensor_id;sensor_type;location;lat;lon;timestamp;P1;durP1;ratioP1;P2;durP2;ratioP2
60006;SDS011;45863;50.336;3.536;2023-03-14T00:00:02;10.13;;;2.67;;
60006;SDS011;45863;50.336;3.536;2023-03-14T00:02:30;8.30;;;1.88;;
60006;SDS011;45863;50.336;3.536;2023-03-14T00:04:55;12.60;;;3.30;;
60006;SDS011;45863;50.336;3.536;2023-03-14T00:07:21;17.08;;;3.53;;
60006;SDS011;45863;50.336;3.536;2023-03-14T00:09:49;8.60;;;2.25;;
60006;SDS011;45863;50.336;3.536;2023-03-14T00:12:14;11.20;;;2.00;;
60006;SDS011;45863;50.336;3.536;2023-03-14T00:14:39;15.07;;;2.58;;
60006;SDS011;45863;50.336;3.536;2023-03-14T00:17:07;18.00;;;2.90;;
60006;SDS011;45863;50.336;3.536;2023-03-14T00:19:32;12.13;;;2.20;;
60006;SDS011;45863;50.336;3.536;2023-03-14T00:24:32;17.50;;;2.75;;
60006;SDS011;45863;50.336;3.536;2023-03-14T00:26:58;17.27;;;2.90;;
60006;SDS011;45863;50.336;3.536;2023-03-14T00:29:23;17.20;;;3.00;;
60006;SDS011;45863;50.336;3.536;2023-03-14T00:31:48;23.23;;;4.00;;
60006;SDS011;45863;50.336;3.536;2023-03-14T00:34:13;18.30;;;3.83;;
60006;SDS011;45863;50.336;3.536;2023-03-14T00:36:39;18.43;;;2.73;;
60006;SDS011;45863;50.336;3.536;2023-03-14T00:39:04;21.07;;;3.80;;
60006;SDS011;45863;50.336;3.536;2023-03-14T00:41:29;26.30;;;4.18;;
60006;SDS011;45863;50.336;3.536;2023-03-14T00:43:54;29.37;;;3.80;;
60006;SDS011;45863;50.336;3.536;2023-03-14T00:46:19;17.95;;;3.05;;
60006;SDS011;45863;50.336;3.536;2023-03-14T00:48:45;33.27;;;4.10;;
60006;SDS011;45863;50.336;3.536;2023-03-14T00:51:10;24.85;;;3.65;;
60006;SDS011;45863;50.336;3.536;2023-03-14T00:53:39;22.00;;;3.30;;
60006;SDS011;45863;50.336;3.536;2023-03-14T00:56:05;25.73;;;3.05;;
60006;SDS011;45863;50.336;3.536;2023-03-14T00:58:30;22.10;;;5.10;;
60006;SDS011;45863;50.336;3.536;2023-03-14T01:00:56;24.47;;;4.13;;
60006;SDS011;45863;50.336;3.536;2023-03-14T01:03:21;16.50;;;2.92;;
60006;SDS011;45863;50.336;3.536;2023-03-14T01:05:46;18.15;;;2.60;;
60006;SDS011;45863;50.336;3.536;2023-03-14T01:08:11;24.92;;;3.30;;
60006;SDS011;45863;50.336;3.536;2023-03-14T01:10:40;22.05;;;3.88;;
60006;SDS011;45863;50.336;3.536;2023-03-14T01:13:05;15.70;;;3.25;;
60006;SDS011;45863;50.336;3.536;2023-03-14T01:15:32;24.98;;;4.50;;
60006;SDS011;45863;50.336;3.536;2023-03-14T01:17:57;13.32;;;2.13;;
60006;SDS011;45863;50.336;3.536;2023-03-14T01:20:22;24.55;;;2.72;;
60006;SDS011;45863;50.336;3.536;2023-03-14T01:22:47;20.77;;;3.08;;
60006;SDS011;45863;50.336;3.536;2023-03-14T01:25:15;18.53;;;2.93;;
60006;SDS011;45863;50.336;3.536;2023-03-14T01:27:41;21.25;;;2.90;;
60006;SDS011;45863;50.336;3.536;2023-03-14T01:30:07;18.65;;;2.75;;
60006;SDS011;45863;50.336;3.536;2023-03-14T01:32:33;18.35;;;2.67;;
60006;SDS011;45863;50.336;3.536;2023-03-14T01:34:58;13.02;;;2.15;;
60006;SDS011;45863;50.336;3.536;2023-03-14T01:37:23;13.47;;;1.83;;
60006;SDS011;45863;50.336;3.536;2023-03-14T01:39:48;7.15;;;1.50;;
60006;SDS011;45863;50.336;3.536;2023-03-14T01:42:14;10.05;;;1.95;;
60006;SDS011;45863;50.336;3.536;2023-03-14T01:45:53;18.77;;;2.65;;
60006;SDS011;45863;50.336;3.536;2023-03-14T01:47:31;7.15;;;1.77;;
60006;SDS011;45863;50.336;3.536;2023-03-14T01:50:06;15.20;;;2.50;;
60006;SDS011;45863;50.336;3.536;2023-03-14T01:52:36;8.73;;;2.33;;
60006;SDS011;45863;50.336;3.536;2023-03-14T01:55:03;17.30;;;1.83;;
60006;SDS011;45863;50.336;3.536;2023-03-14T01:57:36;10.48;;;1.90;;
60006;SDS011;45863;50.336;3.536;2023-03-14T02:00:06;15.45;;;2.40;;
60006;SDS011;45863;50.336;3.536;2023-03-14T02:02:44;21.05;;;3.20;;
60006;SDS011;45863;50.336;3.536;2023-03-14T02:05:10;19.55;;;3.40;;
60006;SDS011;45863;50.336;3.536;2023-03-14T02:07:39;13.88;;;2.70;;
60006;SDS011;45863;50.336;3.536;2023-03-14T02:10:07;12.15;;;2.10;;
60006;SDS011;45863;50.336;3.536;2023-03-14T02:12:32;11.18;;;2.05;;
60006;SDS011;45863;50.336;3.536;2023-03-14T02:14:57;15.98;;;2.03;;
60006;SDS011;45863;50.336;3.536;2023-03-14T02:17:23;8.98;;;2.53;;
60006;SDS011;45863;50.336;3.536;2023-03-14T02:22:20;15.23;;;2.10;;
60006;SDS011;45863;50.336;3.536;2023-03-14T02:24:51;19.52;;;2.83;;
60006;SDS011;45863;50.336;3.536;2023-03-14T02:27:19;12.52;;;2.60;;
60006;SDS011;45863;50.336;3.536;2023-03-14T02:32:46;20.88;;;2.42;;
60006;SDS011;45863;50.336;3.536;2023-03-14T02:35:14;14.10;;;2.13;;
60006;SDS011;45863;50.336;3.536;2023-03-14T02:40:24;12.30;;;2.00;;
60006;SDS011;45863;50.336;3.536;2023-03-14T02:42:49;12.13;;;2.28;;
60006;SDS011;45863;50.336;3.536;2023-03-14T02:47:42;11.43;;;1.57;;
60006;SDS011;45863;50.336;3.536;2023-03-14T02:50:09;10.90;;;2.30;;
60006;SDS011;45863;50.336;3.536;2023-03-14T02:52:35;11.60;;;2.00;;
60006;SDS011;45863;50.336;3.536;2023-03-14T02:55:00;10.55;;;2.20;;
60006;SDS011;45863;50.336;3.536;2023-03-14T02:57:25;9.50;;;2.22;;
60006;SDS011;45863;50.336;3.536;2023-03-14T02:59:50;10.00;;;2.55;;
60006;SDS011;45863;50.336;3.536;2023-03-14T03:02:16;10.20;;;2.03;;
60006;SDS011;45863;50.336;3.536;2023-03-14T03:04:41;10.20;;;1.92;;
60006;SDS011;45863;50.336;3.536;2023-03-14T03:07:06;8.45;;;2.20;;
60006;SDS011;45863;50.336;3.536;2023-03-14T03:09:31;8.88;;;2.15;;
60006;SDS011;45863;50.336;3.536;2023-03-14T03:11:57;14.65;;;2.75;;
60006;SDS011;45863;50.336;3.536;2023-03-14T03:14:22;9.70;;;2.43;;
60006;SDS011;45863;50.336;3.536;2023-03-14T03:16:47;15.75;;;2.65;;
60006;SDS011;45863;50.336;3.536;2023-03-14T03:19:12;11.32;;;2.45;;
60006;SDS011;45863;50.336;3.536;2023-03-14T03:21:38;6.43;;;1.77;;
60006;SDS011;45863;50.336;3.536;2023-03-14T03:24:04;7.82;;;1.60;;
60006;SDS011;45863;50.336;3.536;2023-03-14T03:26:29;7.80;;;1.55;;
60006;SDS011;45863;50.336;3.536;2023-03-14T03:28:54;7.33;;;1.90;;
60006;SDS011;45863;50.336;3.536;2023-03-14T03:31:19;6.68;;;1.92;;
60006;SDS011;45863;50.336;3.536;2023-03-14T03:33:45;8.25;;;1.80;;
60006;SDS011;45863;50.336;3.536;2023-03-14T03:36:10;11.77;;;2.17;;
60006;SDS011;45863;50.336;3.536;2023-03-14T03:38:35;8.98;;;1.92;;
60006;SDS011;45863;50.336;3.536;2023-03-14T03:41:07;14.38;;;2.30;;
60006;SDS011;45863;50.336;3.536;2023-03-14T03:43:32;10.57;;;2.88;;
60006;SDS011;45863;50.336;3.536;2023-03-14T03:45:57;5.72;;;1.90;;
60006;SDS011;45863;50.336;3.536;2023-03-14T03:48:23;10.90;;;2.25;;
60006;SDS011;45863;50.336;3.536;2023-03-14T03:50:48;9.05;;;2.28;;
60006;SDS011;45863;50.336;3.536;2023-03-14T03:53:13;9.93;;;1.75;;
60006;SDS011;45863;50.336;3.536;2023-03-14T03:55:41;6.93;;;1.80;;
60006;SDS011;45863;50.336;3.536;2023-03-14T03:58:07;4.32;;;1.65;;
60006;SDS011;45863;50.336;3.536;2023-03-14T04:00:32;7.72;;;2.28;;
60006;SDS011;45863;50.336;3.536;2023-03-14T04:02:58;3.38;;;1.23;;
60006;SDS011;45863;50.336;3.536;2023-03-14T04:05:24;6.25;;;1.75;;
60006;SDS011;45863;50.336;3.536;2023-03-14T04:07:49;5.75;;;1.30;;
60006;SDS011;45863;50.336;3.536;2023-03-14T04:10:14;5.45;;;1.58;;
60006;SDS011;45863;50.336;3.536;2023-03-14T04:12:40;5.35;;;1.65;;
60006;SDS011;45863;50.336;3.536;2023-03-14T04:15:05;9.77;;;2.22;;
60006;SDS011;45863;50.336;3.536;2023-03-14T04:17:30;11.65;;;1.90;;
60006;SDS011;45863;50.336;3.536;2023-03-14T04:19:56;6.17;;;1.17;;
60006;SDS011;45863;50.336;3.536;2023-03-14T04:22:21;6.82;;;1.55;;
60006;SDS011;45863;50.336;3.536;2023-03-14T04:24:46;4.97;;;1.35;;
60006;SDS011;45863;50.336;3.536;2023-03-14T04:27:11;7.77;;;2.00;;
60006;SDS011;45863;50.336;3.536;2023-03-14T04:29:37;3.90;;;1.00;;
60006;SDS011;45863;50.336;3.536;2023-03-14T04:32:02;6.75;;;1.40;;
60006;SDS011;45863;50.336;3.536;2023-03-14T04:34:27;6.22;;;1.20;;
60006;SDS011;45863;50.336;3.536;2023-03-14T04:36:52;4.20;;;1.20;;
60006;SDS011;45863;50.336;3.536;2023-03-14T04:39:18;5.53;;;1.30;;
60006;SDS011;45863;50.336;3.536;2023-03-14T04:41:44;5.55;;;1.20;;
60006;SDS011;45863;50.336;3.536;2023-03-14T04:44:09;3.55;;;1.20;;
60006;SDS011;45863;50.336;3.536;2023-03-14T04:46:34;3.80;;;1.00;;
60006;SDS011;45863;50.336;3.536;2023-03-14T04:48:59;5.23;;;1.40;;
60006;SDS011;45863;50.336;3.536;2023-03-14T04:51:25;3.35;;;1.33;;
60006;SDS011;45863;50.336;3.536;2023-03-14T04:53:52;5.00;;;1.40;;
60006;SDS011;45863;50.336;3.536;2023-03-14T04:56:17;5.72;;;1.63;;
60006;SDS011;45863;50.336;3.536;2023-03-14T04:58:42;4.33;;;1.33;;
60006;SDS011;45863;50.336;3.536;2023-03-14T05:01:09;5.05;;;1.42;;
60006;SDS011;45863;50.336;3.536;2023-03-14T05:03:34;3.33;;;1.20;;
60006;SDS011;45863;50.336;3.536;2023-03-14T05:06:01;7.43;;;1.85;;
60006;SDS011;45863;50.336;3.536;2023-03-14T05:08:26;6.30;;;1.80;;
60006;SDS011;45863;50.336;3.536;2023-03-14T05:10:53;5.10;;;1.93;;
60006;SDS011;45863;50.336;3.536;2023-03-14T05:13:18;8.95;;;3.00;;
60006;SDS011;45863;50.336;3.536;2023-03-14T05:15:43;6.30;;;1.80;;
60006;SDS011;45863;50.336;3.536;2023-03-14T05:18:09;7.87;;;2.60;;
60006;SDS011;45863;50.336;3.536;2023-03-14T05:20:34;6.65;;;2.03;;
60006;SDS011;45863;50.336;3.536;2023-03-14T05:23:00;6.40;;;2.35;;
60006;SDS011;45863;50.336;3.536;2023-03-14T05:25:25;9.18;;;2.30;;
60006;SDS011;45863;50.336;3.536;2023-03-14T05:27:52;6.95;;;2.55;;
60006;SDS011;45863;50.336;3.536;2023-03-14T05:30:18;9.75;;;2.85;;
60006;SDS011;45863;50.336;3.536;2023-03-14T05:32:43;7.65;;;2.50;;
60006;SDS011;45863;50.336;3.536;2023-03-14T05:35:08;8.68;;;2.60;;
60006;SDS011;45863;50.336;3.536;2023-03-14T05:37:33;8.55;;;2.30;;
60006;SDS011;45863;50.336;3.536;2023-03-14T05:39:59;7.25;;;2.40;;
60006;SDS011;45863;50.336;3.536;2023-03-14T05:42:24;5.75;;;2.60;;
60006;SDS011;45863;50.336;3.536;2023-03-14T05:44:50;6.47;;;2.13;;
60006;SDS011;45863;50.336;3.536;2023-03-14T05:47:15;11.07;;;2.90;;
60006;SDS011;45863;50.336;3.536;2023-03-14T05:49:40;9.40;;;2.80;;
60006;SDS011;45863;50.336;3.536;2023-03-14T05:52:05;11.40;;;3.13;;
60006;SDS011;45863;50.336;3.536;2023-03-14T05:54:31;7.90;;;2.85;;
60006;SDS011;45863;50.336;3.536;2023-03-14T05:56:56;7.57;;;2.83;;
60006;SDS011;45863;50.336;3.536;2023-03-14T05:59:21;7.83;;;2.97;;
60006;SDS011;45863;50.336;3.536;2023-03-14T06:01:46;9.38;;;2.63;;
60006;SDS011;45863;50.336;3.536;2023-03-14T06:04:12;4.63;;;2.08;;
60006;SDS011;45863;50.336;3.536;2023-03-14T06:06:38;6.45;;;2.47;;
60006;SDS011;45863;50.336;3.536;2023-03-14T06:09:03;6.72;;;2.40;;
60006;SDS011;45863;50.336;3.536;2023-03-14T06:11:28;7.07;;;1.92;;
60006;SDS011;45863;50.336;3.536;2023-03-14T06:13:54;8.68;;;2.05;;
60006;SDS011;45863;50.336;3.536;2023-03-14T06:16:19;5.93;;;2.10;;
60006;SDS011;45863;50.336;3.536;2023-03-14T06:18:45;10.15;;;2.75;;
60006;SDS011;45863;50.336;3.536;2023-03-14T06:21:11;11.35;;;3.30;;
60006;SDS011;45863;50.336;3.536;2023-03-14T06:23:37;11.93;;;3.17;;
60006;SDS011;45863;50.336;3.536;2023-03-14T06:26:02;11.18;;;4.47;;
60006;SDS011;45863;50.336;3.536;2023-03-14T06:28:27;9.30;;;4.85;;
60006;SDS011;45863;50.336;3.536;2023-03-14T06:30:53;10.23;;;4.50;;
60006;SDS011;45863;50.336;3.536;2023-03-14T06:33:18;12.60;;;4.73;;
60006;SDS011;45863;50.336;3.536;2023-03-14T06:35:43;11.52;;;4.53;;
60006;SDS011;45863;50.336;3.536;2023-03-14T06:38:09;8.77;;;4.57;;
60006;SDS011;45863;50.336;3.536;2023-03-14T06:40:34;9.68;;;4.82;;
60006;SDS011;45863;50.336;3.536;2023-03-14T06:42:59;14.38;;;4.70;;
60006;SDS011;45863;50.336;3.536;2023-03-14T06:45:24;10.95;;;3.40;;
60006;SDS011;45863;50.336;3.536;2023-03-14T06:47:50;11.93;;;3.40;;
60006;SDS011;45863;50.336;3.536;2023-03-14T06:50:15;7.35;;;3.33;;
60006;SDS011;45863;50.336;3.536;2023-03-14T06:52:40;10.93;;;3.50;;
60006;SDS011;45863;50.336;3.536;2023-03-14T06:55:12;6.40;;;2.90;;
60006;SDS011;45863;50.336;3.536;2023-03-14T06:57:38;8.00;;;3.83;;
60006;SDS011;45863;50.336;3.536;2023-03-14T07:00:03;8.27;;;3.90;;
60006;SDS011;45863;50.336;3.536;2023-03-14T07:02:29;14.05;;;4.50;;
60006;SDS011;45863;50.336;3.536;2023-03-14T07:04:55;8.25;;;3.90;;
60006;SDS011;45863;50.336;3.536;2023-03-14T07:07:20;14.05;;;4.88;;
60006;SDS011;45863;50.336;3.536;2023-03-14T07:09:45;13.02;;;4.28;;
60006;SDS011;45863;50.336;3.536;2023-03-14T07:12:10;13.38;;;4.82;;
60006;SDS011;45863;50.336;3.536;2023-03-14T07:14:35;8.77;;;3.70;;
60006;SDS011;45863;50.336;3.536;2023-03-14T07:17:01;12.23;;;4.13;;
60006;SDS011;45863;50.336;3.536;2023-03-14T07:19:26;8.05;;;3.75;;
60006;SDS011;45863;50.336;3.536;2023-03-14T07:21:51;10.43;;;4.78;;
60006;SDS011;45863;50.336;3.536;2023-03-14T07:24:16;15.02;;;4.30;;
60006;SDS011;45863;50.336;3.536;2023-03-14T07:26:42;11.68;;;4.25;;
60006;SDS011;45863;50.336;3.536;2023-03-14T07:29:07;16.85;;;5.10;;
60006;SDS011;45863;50.336;3.536;2023-03-14T07:31:32;13.65;;;3.85;;
60006;SDS011;45863;50.336;3.536;2023-03-14T07:33:58;11.18;;;4.30;;
60006;SDS011;45863;50.336;3.536;2023-03-14T07:36:23;9.07;;;4.55;;
60006;SDS011;45863;50.336;3.536;2023-03-14T07:38:49;10.82;;;4.15;;
60006;SDS011;45863;50.336;3.536;2023-03-14T07:41:14;11.75;;;4.05;;
60006;SDS011;45863;50.336;3.536;2023-03-14T07:43:39;11.38;;;3.03;;
60006;SDS011;45863;50.336;3.536;2023-03-14T07:46:05;8.00;;;2.58;;
60006;SDS011;45863;50.336;3.536;2023-03-14T07:48:30;6.88;;;2.42;;
60006;SDS011;45863;50.336;3.536;2023-03-14T07:50:55;8.20;;;2.30;;
60006;SDS011;45863;50.336;3.536;2023-03-14T07:53:21;12.95;;;2.20;;
60006;SDS011;45863;50.336;3.536;2023-03-14T07:55:46;5.38;;;1.70;;
60006;SDS011;45863;50.336;3.536;2023-03-14T07:58:13;5.93;;;1.60;;
60006;SDS011;45863;50.336;3.536;2023-03-14T08:00:38;11.05;;;2.15;;
60006;SDS011;45863;50.336;3.536;2023-03-14T08:03:04;8.15;;;1.92;;
60006;SDS011;45863;50.336;3.536;2023-03-14T08:05:35;9.10;;;1.80;;
60006;SDS011;45863;50.336;3.536;2023-03-14T08:08:01;8.35;;;1.50;;
60006;SDS011;45863;50.336;3.536;2023-03-14T08:10:26;7.95;;;1.73;;
60006;SDS011;45863;50.336;3.536;2023-03-14T08:12:53;7.55;;;1.98;;
60006;SDS011;45863;50.336;3.536;2023-03-14T08:15:19;15.02;;;2.13;;
60006;SDS011;45863;50.336;3.536;2023-03-14T08:17:44;6.22;;;1.77;;
60006;SDS011;45863;50.336;3.536;2023-03-14T08:20:09;6.03;;;1.60;;
60006;SDS011;45863;50.336;3.536;2023-03-14T08:22:36;6.55;;;1.30;;
60006;SDS011;45863;50.336;3.536;2023-03-14T08:25:01;4.60;;;1.33;;
60006;SDS011;45863;50.336;3.536;2023-03-14T08:27:27;5.10;;;1.20;;
60006;SDS011;45863;50.336;3.536;2023-03-14T08:29:52;9.38;;;1.52;;
60006;SDS011;45863;50.336;3.536;2023-03-14T08:32:17;5.22;;;1.23;;
60006;SDS011;45863;50.336;3.536;2023-03-14T08:34:44;5.63;;;2.15;;
60006;SDS011;45863;50.336;3.536;2023-03-14T08:37:10;8.83;;;1.90;;
60006;SDS011;45863;50.336;3.536;2023-03-14T08:39:35;4.43;;;1.10;;
60006;SDS011;45863;50.336;3.536;2023-03-14T08:42:00;7.60;;;1.73;;
60006;SDS011;45863;50.336;3.536;2023-03-14T08:44:25;4.77;;;1.40;;
60006;SDS011;45863;50.336;3.536;2023-03-14T08:46:50;7.40;;;1.38;;
60006;SDS011;45863;50.336;3.536;2023-03-14T08:49:16;7.67;;;1.63;;
60006;SDS011;45863;50.336;3.536;2023-03-14T08:51:41;4.65;;;1.27;;
60006;SDS011;45863;50.336;3.536;2023-03-14T08:54:08;7.40;;;1.30;;
60006;SDS011;45863;50.336;3.536;2023-03-14T08:56:34;6.75;;;1.42;;
60006;SDS011;45863;50.336;3.536;2023-03-14T08:58:59;7.65;;;1.77;;
60006;SDS011;45863;50.336;3.536;2023-03-14T09:01:24;7.95;;;1.60;;
60006;SDS011;45863;50.336;3.536;2023-03-14T09:03:51;9.43;;;1.58;;
60006;SDS011;45863;50.336;3.536;2023-03-14T09:06:16;8.50;;;1.67;;
60006;SDS011;45863;50.336;3.536;2023-03-14T09:08:44;9.23;;;1.83;;
60006;SDS011;45863;50.336;3.536;2023-03-14T09:11:10;6.97;;;1.67;;
60006;SDS011;45863;50.336;3.536;2023-03-14T09:13:35;8.50;;;1.60;;
60006;SDS011;45863;50.336;3.536;2023-03-14T09:16:01;8.55;;;1.63;;
60006;SDS011;45863;50.336;3.536;2023-03-14T09:18:26;7.55;;;2.00;;
60006;SDS011;45863;50.336;3.536;2023-03-14T09:20:51;8.60;;;1.60;;
60006;SDS011;45863;50.336;3.536;2023-03-14T09:23:16;12.48;;;1.92;;
60006;SDS011;45863;50.336;3.536;2023-03-14T09:25:42;7.47;;;1.48;;
60006;SDS011;45863;50.336;3.536;2023-03-14T09:28:07;8.20;;;2.03;;
60006;SDS011;45863;50.336;3.536;2023-03-14T09:30:33;5.40;;;1.30;;
60006;SDS011;45863;50.336;3.536;2023-03-14T09:32:58;5.93;;;1.65;;
60006;SDS011;45863;50.336;3.536;2023-03-14T09:35:24;5.47;;;1.42;;
60006;SDS011;45863;50.336;3.536;2023-03-14T09:37:49;8.18;;;2.10;;
60006;SDS011;45863;50.336;3.536;2023-03-14T09:40:16;8.45;;;1.75;;
60006;SDS011;45863;50.336;3.536;2023-03-14T09:42:41;8.77;;;1.98;;
60006;SDS011;45863;50.336;3.536;2023-03-14T09:45:11;9.52;;;1.80;;
60006;SDS011;45863;50.336;3.536;2023-03-14T09:47:37;8.82;;;2.08;;
60006;SDS011;45863;50.336;3.536;2023-03-14T09:50:03;7.55;;;1.25;;
60006;SDS011;45863;50.336;3.536;2023-03-14T09:52:32;6.55;;;1.33;;
60006;SDS011;45863;50.336;3.536;2023-03-14T09:55:06;9.40;;;1.73;;
60006;SDS011;45863;50.336;3.536;2023-03-14T09:57:35;5.70;;;1.55;;
60006;SDS011;45863;50.336;3.536;2023-03-14T10:00:03;10.30;;;2.13;;
60006;SDS011;45863;50.336;3.536;2023-03-14T10:02:39;8.98;;;1.35;;
60006;SDS011;45863;50.336;3.536;2023-03-14T10:05:07;8.20;;;1.80;;
60006;SDS011;45863;50.336;3.536;2023-03-14T10:07:33;6.65;;;1.52;;
60006;SDS011;45863;50.336;3.536;2023-03-14T10:09:58;14.57;;;2.10;;
60006;SDS011;45863;50.336;3.536;2023-03-14T10:12:34;9.82;;;1.85;;
60006;SDS011;45863;50.336;3.536;2023-03-14T10:15:03;8.93;;;2.17;;
60006;SDS011;45863;50.336;3.536;2023-03-14T10:17:29;13.70;;;2.22;;
60006;SDS011;45863;50.336;3.536;2023-03-14T10:19:56;9.60;;;1.52;;
60006;SDS011;45863;50.336;3.536;2023-03-14T10:22:23;10.57;;;1.65;;
60006;SDS011;45863;50.336;3.536;2023-03-14T10:24:51;10.75;;;1.77;;
60006;SDS011;45863;50.336;3.536;2023-03-14T10:27:21;8.05;;;1.60;;
60006;SDS011;45863;50.336;3.536;2023-03-14T10:29:51;9.20;;;1.98;;
60006;SDS011;45863;50.336;3.536;2023-03-14T10:32:20;11.40;;;1.63;;
60006;SDS011;45863;50.336;3.536;2023-03-14T10:34:46;11.30;;;1.65;;
60006;SDS011;45863;50.336;3.536;2023-03-14T10:37:27;16.15;;;2.15;;
60006;SDS011;45863;50.336;3.536;2023-03-14T10:39:53;12.02;;;2.38;;
60006;SDS011;45863;50.336;3.536;2023-03-14T10:44:45;11.85;;;1.80;;
60006;SDS011;45863;50.336;3.536;2023-03-14T10:47:18;8.27;;;1.60;;
60006;SDS011;45863;50.336;3.536;2023-03-14T10:49:44;6.85;;;1.50;;
60006;SDS011;45863;50.336;3.536;2023-03-14T10:52:14;5.45;;;1.27;;
60006;SDS011;45863;50.336;3.536;2023-03-14T10:54:40;6.78;;;1.50;;
60006;SDS011;45863;50.336;3.536;2023-03-14T10:57:06;8.82;;;2.00;;
60006;SDS011;45863;50.336;3.536;2023-03-14T10:59:35;7.30;;;1.58;;
60006;SDS011;45863;50.336;3.536;2023-03-14T11:02:07;7.57;;;1.58;;
60006;SDS011;45863;50.336;3.536;2023-03-14T11:11:59;10.38;;;1.70;;
60006;SDS011;45863;50.336;3.536;2023-03-14T11:14:28;9.98;;;1.50;;
60006;SDS011;45863;50.336;3.536;2023-03-14T11:17:00;11.25;;;1.55;;
60006;SDS011;45863;50.336;3.536;2023-03-14T11:19:42;9.13;;;2.13;;
60006;SDS011;45863;50.336;3.536;2023-03-14T11:27:30;10.05;;;2.03;;
60006;SDS011;45863;50.336;3.536;2023-03-14T11:35:11;6.35;;;1.52;;
60006;SDS011;45863;50.336;3.536;2023-03-14T11:37:41;14.68;;;1.80;;
60006;SDS011;45863;50.336;3.536;2023-03-14T11:42:33;9.20;;;1.85;;
60006;SDS011;45863;50.336;3.536;2023-03-14T11:44:58;6.25;;;1.58;;
60006;SDS011;45863;50.336;3.536;2023-03-14T11:47:32;9.70;;;2.00;;
60006;SDS011;45863;50.336;3.536;2023-03-14T11:50:04;8.00;;;1.50;;
60006;SDS011;45863;50.336;3.536;2023-03-14T11:52:34;9.80;;;1.80;;
60006;SDS011;45863;50.336;3.536;2023-03-14T11:55:21;9.95;;;1.60;;
60006;SDS011;45863;50.336;3.536;2023-03-14T11:57:47;5.55;;;1.70;;
60006;SDS011;45863;50.336;3.536;2023-03-14T12:02:45;9.90;;;1.88;;
60006;SDS011;45863;50.336;3.536;2023-03-14T12:05:25;8.60;;;1.52;;
60006;SDS011;45863;50.336;3.536;2023-03-14T12:10:38;8.93;;;1.92;;
60006;SDS011;45863;50.336;3.536;2023-03-14T12:13:04;9.50;;;2.00;;
60006;SDS011;45863;50.336;3.536;2023-03-14T12:15:29;6.75;;;1.52;;
60006;SDS011;45863;50.336;3.536;2023-03-14T12:17:55;14.30;;;2.30;;
60006;SDS011;45863;50.336;3.536;2023-03-14T12:20:24;10.10;;;2.00;;
60006;SDS011;45863;50.336;3.536;2023-03-14T12:22:56;9.30;;;1.60;;
60006;SDS011;45863;50.336;3.536;2023-03-14T12:25:24;9.23;;;2.28;;
60006;SDS011;45863;50.336;3.536;2023-03-14T12:33:38;8.10;;;2.00;;
60006;SDS011;45863;50.336;3.536;2023-03-14T12:35:40;8.25;;;1.40;;
60006;SDS011;45863;50.336;3.536;2023-03-14T12:38:15;7.38;;;1.80;;
60006;SDS011;45863;50.336;3.536;2023-03-14T12:40:49;9.30;;;1.80;;
60006;SDS011;45863;50.336;3.536;2023-03-14T12:43:28;11.13;;;2.28;;
60006;SDS011;45863;50.336;3.536;2023-03-14T12:46:07;12.10;;;2.20;;
60006;SDS011;45863;50.336;3.536;2023-03-14T12:48:33;7.90;;;1.70;;
60006;SDS011;45863;50.336;3.536;2023-03-14T12:53:49;6.28;;;1.70;;
60006;SDS011;45863;50.336;3.536;2023-03-14T13:01:20;8.20;;;1.90;;
60006;SDS011;45863;50.336;3.536;2023-03-14T13:11:46;8.18;;;1.90;;
60006;SDS011;45863;50.336;3.536;2023-03-14T13:14:11;6.75;;;1.67;;
60006;SDS011;45863;50.336;3.536;2023-03-14T13:16:37;8.77;;;2.00;;
60006;SDS011;45863;50.336;3.536;2023-03-14T13:19:14;8.70;;;1.40;;
60006;SDS011;45863;50.336;3.536;2023-03-14T13:21:40;10.18;;;2.15;;
60006;SDS011;45863;50.336;3.536;2023-03-14T13:24:06;7.72;;;2.25;;
60006;SDS011;45863;50.336;3.536;2023-03-14T13:26:36;7.45;;;1.58;;
60006;SDS011;45863;50.336;3.536;2023-03-14T13:29:35;8.35;;;1.98;;
60006;SDS011;45863;50.336;3.536;2023-03-14T13:31:55;6.25;;;1.40;;
60006;SDS011;45863;50.336;3.536;2023-03-14T13:34:24;4.78;;;1.60;;
60006;SDS011;45863;50.336;3.536;2023-03-14T13:36:51;5.20;;;1.20;;
60006;SDS011;45863;50.336;3.536;2023-03-14T13:39:17;5.07;;;1.23;;
60006;SDS011;45863;50.336;3.536;2023-03-14T13:41:43;7.05;;;1.60;;
60006;SDS011;45863;50.336;3.536;2023-03-14T13:44:12;5.72;;;1.63;;
60006;SDS011;45863;50.336;3.536;2023-03-14T13:46:39;6.93;;;2.00;;
60006;SDS011;45863;50.336;3.536;2023-03-14T13:49:05;8.13;;;2.92;;
60006;SDS011;45863;50.336;3.536;2023-03-14T13:51:31;8.43;;;2.15;;
60006;SDS011;45863;50.336;3.536;2023-03-14T13:53:58;7.40;;;2.75;;
60006;SDS011;45863;50.336;3.536;2023-03-14T13:56:26;8.55;;;2.58;;
60006;SDS011;45863;50.336;3.536;2023-03-14T13:58:51;9.20;;;2.65;;
60006;SDS011;45863;50.336;3.536;2023-03-14T14:01:18;7.30;;;2.20;;
60006;SDS011;45863;50.336;3.536;2023-03-14T14:03:45;5.30;;;1.55;;
60006;SDS011;45863;50.336;3.536;2023-03-14T14:11:08;3.93;;;1.63;;
60006;SDS011;45863;50.336;3.536;2023-03-14T14:13:35;3.50;;;1.35;;
60006;SDS011;45863;50.336;3.536;2023-03-14T14:16:00;4.03;;;1.67;;
60006;SDS011;45863;50.336;3.536;2023-03-14T14:18:27;4.53;;;1.52;;
60006;SDS011;45863;50.336;3.536;2023-03-14T14:20:53;3.53;;;1.73;;
60006;SDS011;45863;50.336;3.536;2023-03-14T14:23:19;6.80;;;2.15;;
60006;SDS011;45863;50.336;3.536;2023-03-14T14:25:50;9.35;;;2.08;;
60006;SDS011;45863;50.336;3.536;2023-03-14T14:28:17;7.70;;;1.80;;
60006;SDS011;45863;50.336;3.536;2023-03-14T14:30:46;12.20;;;2.40;;
60006;SDS011;45863;50.336;3.536;2023-03-14T14:33:12;10.07;;;2.27;;
60006;SDS011;45863;50.336;3.536;2023-03-14T14:35:41;10.70;;;2.53;;
60006;SDS011;45863;50.336;3.536;2023-03-14T14:38:12;12.13;;;3.17;;
60006;SDS011;45863;50.336;3.536;2023-03-14T14:40:44;16.75;;;3.60;;
60006;SDS011;45863;50.336;3.536;2023-03-14T14:43:10;16.65;;;2.63;;
60006;SDS011;45863;50.336;3.536;2023-03-14T14:45:36;13.35;;;2.92;;
60006;SDS011;45863;50.336;3.536;2023-03-14T14:52:55;17.08;;;3.65;;
60006;SDS011;45863;50.336;3.536;2023-03-14T14:55:21;15.90;;;3.92;;
60006;SDS011;45863;50.336;3.536;2023-03-14T14:57:53;23.23;;;4.07;;
60006;SDS011;45863;50.336;3.536;2023-03-14T15:00:25;20.10;;;4.53;;
60006;SDS011;45863;50.336;3.536;2023-03-14T15:03:12;15.88;;;4.47;;
60006;SDS011;45863;50.336;3.536;2023-03-14T15:05:37;17.77;;;3.70;;
60006;SDS011;45863;50.336;3.536;2023-03-14T15:08:07;15.98;;;4.90;;
60006;SDS011;45863;50.336;3.536;2023-03-14T15:10:33;25.80;;;4.60;;
60006;SDS011;45863;50.336;3.536;2023-03-14T15:12:58;17.77;;;4.38;;
60006;SDS011;45863;50.336;3.536;2023-03-14T15:15:23;16.63;;;3.15;;
60006;SDS011;45863;50.336;3.536;2023-03-14T15:17:48;18.67;;;3.60;;
60006;SDS011;45863;50.336;3.536;2023-03-14T15:20:15;15.52;;;3.75;;
60006;SDS011;45863;50.336;3.536;2023-03-14T15:22:40;10.90;;;4.00;;
60006;SDS011;45863;50.336;3.536;2023-03-14T15:25:06;14.07;;;3.95;;
60006;SDS011;45863;50.336;3.536;2023-03-14T15:27:32;11.40;;;3.83;;
60006;SDS011;45863;50.336;3.536;2023-03-14T15:29:57;12.40;;;3.80;;
60006;SDS011;45863;50.336;3.536;2023-03-14T15:32:23;17.02;;;3.83;;
60006;SDS011;45863;50.336;3.536;2023-03-14T15:34:49;15.40;;;4.43;;
60006;SDS011;45863;50.336;3.536;2023-03-14T15:37:15;16.15;;;5.10;;
60006;SDS011;45863;50.336;3.536;2023-03-14T15:39:44;18.50;;;6.28;;
60006;SDS011;45863;50.336;3.536;2023-03-14T15:42:09;13.05;;;5.45;;
60006;SDS011;45863;50.336;3.536;2023-03-14T15:44:35;17.13;;;5.97;;
60006;SDS011;45863;50.336;3.536;2023-03-14T15:47:00;17.80;;;7.13;;
60006;SDS011;45863;50.336;3.536;2023-03-14T15:49:26;17.20;;;4.18;;
60006;SDS011;45863;50.336;3.536;2023-03-14T15:51:51;13.40;;;5.03;;